sensor_id;sensor_type;location;lat;lon;timestamp;P1;durP1;ratioP1;P2;durP2;ratioP2
59016;SDS011;44800;55.600;38.134;2023-04-24T00:01:08;22.25;;;11.35;;
59016;SDS011;44800;55.600;38.134;2023-04-24T00:03:37;21.73;;;10.73;;
59016;SDS011;44800;55.600;38.134;2023-04-24T00:06:05;20.75;;;10.02;;
59016;SDS011;44800;55.600;38.134;2023-04-24T00:08:34;23.38;;;12.20;;
59016;SDS011;44800;55.600;38.134;2023-04-24T00:11:03;18.30;;;10.50;;
59016;SDS011;44800;55.600;38.134;2023-04-24T00:13:33;17.60;;;9.35;;
59016;SDS011;44800;55.600;38.134;2023-04-24T00:16:01;23.10;;;12.27;;
59016;SDS011;44800;55.600;38.134;2023-04-24T00:18:30;20.05;;;10.50;;
59016;SDS011;44800;55.600;38.134;2023-04-24T00:20:58;28.08;;;14.13;;
59016;SDS011;44800;55.600;38.134;2023-04-24T00:23:27;27.50;;;11.65;;
59016;SDS011;44800;55.600;38.134;2023-04-24T00:25:55;33.60;;;13.02;;
59016;SDS011;44800;55.600;38.134;2023-04-24T00:28:24;40.38;;;13.32;;
59016;SDS011;44800;55.600;38.134;2023-04-24T00:30:54;25.85;;;11.77;;
59016;SDS011;44800;55.600;38.134;2023-04-24T00:33:22;25.88;;;12.27;;
59016;SDS011;44800;55.600;38.134;2023-04-24T00:35:51;23.95;;;11.07;;
59016;SDS011;44800;55.600;38.134;2023-04-24T00:38:19;24.98;;;13.00;;
59016;SDS011;44800;55.600;38.134;2023-04-24T00:40:48;25.63;;;12.35;;
59016;SDS011;44800;55.600;38.134;2023-04-24T00:43:17;27.02;;;13.45;;
59016;SDS011;44800;55.600;38.134;2023-04-24T00:45:46;22.20;;;12.23;;
59016;SDS011;44800;55.600;38.134;2023-04-24T00:48:16;24.67;;;12.95;;
59016;SDS011;44800;55.600;38.134;2023-04-24T00:50:44;22.83;;;11.95;;
59016;SDS011;44800;55.600;38.134;2023-04-24T00:53:13;26.20;;;12.70;;
59016;SDS011;44800;55.600;38.134;2023-04-24T00:55:42;23.52;;;11.68;;
59016;SDS011;44800;55.600;38.134;2023-04-24T00:58:10;25.83;;;12.07;;
59016;SDS011;44800;55.600;38.134;2023-04-24T01:00:39;34.05;;;15.60;;
59016;SDS011;44800;55.600;38.134;2023-04-24T01:03:08;27.10;;;11.63;;
59016;SDS011;44800;55.600;38.134;2023-04-24T01:05:39;22.90;;;12.45;;
59016;SDS011;44800;55.600;38.134;2023-04-24T01:08:07;20.40;;;11.63;;
59016;SDS011;44800;55.600;38.134;2023-04-24T01:10:35;28.73;;;12.93;;
59016;SDS011;44800;55.600;38.134;2023-04-24T01:13:04;31.42;;;13.57;;
59016;SDS011;44800;55.600;38.134;2023-04-24T01:15:33;27.35;;;13.50;;
59016;SDS011;44800;55.600;38.134;2023-04-24T01:18:01;29.50;;;12.95;;
59016;SDS011;44800;55.600;38.134;2023-04-24T01:20:30;21.58;;;12.30;;
59016;SDS011;44800;55.600;38.134;2023-04-24T01:23:00;30.55;;;14.45;;
59016;SDS011;44800;55.600;38.134;2023-04-24T01:25:29;25.08;;;12.82;;
59016;SDS011;44800;55.600;38.134;2023-04-24T01:27:58;21.17;;;12.00;;
59016;SDS011;44800;55.600;38.134;2023-04-24T01:30:27;25.00;;;12.57;;
59016;SDS011;44800;55.600;38.134;2023-04-24T01:32:55;29.17;;;13.90;;
59016;SDS011;44800;55.600;38.134;2023-04-24T01:35:24;31.75;;;13.40;;
59016;SDS011;44800;55.600;38.134;2023-04-24T01:37:53;25.45;;;13.50;;
59016;SDS011;44800;55.600;38.134;2023-04-24T01:40:23;26.75;;;12.40;;
59016;SDS011;44800;55.600;38.134;2023-04-24T01:42:51;23.73;;;13.30;;
59016;SDS011;44800;55.600;38.134;2023-04-24T01:45:20;23.65;;;13.05;;
59016;SDS011;44800;55.600;38.134;2023-04-24T01:47:48;25.33;;;13.30;;
59016;SDS011;44800;55.600;38.134;2023-04-24T01:50:18;24.10;;;12.93;;
59016;SDS011;44800;55.600;38.134;2023-04-24T01:52:46;25.02;;;14.02;;
59016;SDS011;44800;55.600;38.134;2023-04-24T01:55:14;24.05;;;12.98;;
59016;SDS011;44800;55.600;38.134;2023-04-24T01:57:44;26.95;;;12.50;;
59016;SDS011;44800;55.600;38.134;2023-04-24T02:00:13;20.17;;;12.48;;
59016;SDS011;44800;55.600;38.134;2023-04-24T02:02:41;24.52;;;13.00;;
59016;SDS011;44800;55.600;38.134;2023-04-24T02:05:13;30.73;;;14.02;;
59016;SDS011;44800;55.600;38.134;2023-04-24T02:07:42;26.42;;;13.57;;
59016;SDS011;44800;55.600;38.134;2023-04-24T02:10:10;25.83;;;12.77;;
59016;SDS011;44800;55.600;38.134;2023-04-24T02:12:39;25.58;;;13.98;;
59016;SDS011;44800;55.600;38.134;2023-04-24T02:15:09;26.38;;;14.52;;
59016;SDS011;44800;55.600;38.134;2023-04-24T02:17:38;26.70;;;13.88;;
59016;SDS011;44800;55.600;38.134;2023-04-24T02:20:07;29.02;;;14.00;;
59016;SDS011;44800;55.600;38.134;2023-04-24T02:22:35;30.25;;;12.93;;
59016;SDS011;44800;55.600;38.134;2023-04-24T02:25:04;25.42;;;14.32;;
59016;SDS011;44800;55.600;38.134;2023-04-24T02:27:34;26.23;;;13.32;;
59016;SDS011;44800;55.600;38.134;2023-04-24T02:30:03;21.85;;;12.45;;
59016;SDS011;44800;55.600;38.134;2023-04-24T02:32:33;26.25;;;13.07;;
59016;SDS011;44800;55.600;38.134;2023-04-24T02:35:02;25.42;;;13.02;;
59016;SDS011;44800;55.600;38.134;2023-04-24T02:37:31;23.40;;;12.95;;
59016;SDS011;44800;55.600;38.134;2023-04-24T02:39:59;25.67;;;14.10;;
59016;SDS011;44800;55.600;38.134;2023-04-24T02:42:30;19.42;;;12.88;;
59016;SDS011;44800;55.600;38.134;2023-04-24T02:44:58;25.48;;;14.10;;
59016;SDS011;44800;55.600;38.134;2023-04-24T02:47:27;29.58;;;14.30;;
59016;SDS011;44800;55.600;38.134;2023-04-24T02:49:56;27.48;;;13.35;;
59016;SDS011;44800;55.600;38.134;2023-04-24T02:52:25;25.10;;;13.82;;
59016;SDS011;44800;55.600;38.134;2023-04-24T02:54:53;22.52;;;13.35;;
59016;SDS011;44800;55.600;38.134;2023-04-24T02:57:21;22.95;;;13.25;;
59016;SDS011;44800;55.600;38.134;2023-04-24T02:59:50;25.02;;;13.73;;
59016;SDS011;44800;55.600;38.134;2023-04-24T03:02:18;19.00;;;12.52;;
59016;SDS011;44800;55.600;38.134;2023-04-24T03:04:47;25.38;;;12.63;;
59016;SDS011;44800;55.600;38.134;2023-04-24T03:07:17;27.13;;;13.57;;
59016;SDS011;44800;55.600;38.134;2023-04-24T03:09:47;23.38;;;14.25;;
59016;SDS011;44800;55.600;38.134;2023-04-24T03:12:16;22.77;;;13.20;;
59016;SDS011;44800;55.600;38.134;2023-04-24T03:14:44;26.42;;;14.82;;
59016;SDS011;44800;55.600;38.134;2023-04-24T03:17:13;34.83;;;16.58;;
59016;SDS011;44800;55.600;38.134;2023-04-24T03:19:41;32.67;;;16.13;;
59016;SDS011;44800;55.600;38.134;2023-04-24T03:22:10;25.42;;;13.55;;
59016;SDS011;44800;55.600;38.134;2023-04-24T03:24:40;26.25;;;13.43;;
59016;SDS011;44800;55.600;38.134;2023-04-24T03:27:08;152.52;;;24.80;;
59016;SDS011;44800;55.600;38.134;2023-04-24T03:29:37;32.83;;;15.63;;
59016;SDS011;44800;55.600;38.134;2023-04-24T03:32:05;26.45;;;14.32;;
59016;SDS011;44800;55.600;38.134;2023-04-24T03:34:34;26.17;;;13.52;;
59016;SDS011;44800;55.600;38.134;2023-04-24T03:37:02;29.80;;;14.02;;
59016;SDS011;44800;55.600;38.134;2023-04-24T03:39:30;23.00;;;13.05;;
59016;SDS011;44800;55.600;38.134;2023-04-24T03:42:00;32.10;;;15.52;;
59016;SDS011;44800;55.600;38.134;2023-04-24T03:44:29;25.65;;;15.07;;
59016;SDS011;44800;55.600;38.134;2023-04-24T03:46:57;34.63;;;15.57;;
59016;SDS011;44800;55.600;38.134;2023-04-24T03:49:26;47.70;;;15.73;;
59016;SDS011;44800;55.600;38.134;2023-04-24T03:51:54;24.15;;;14.32;;
59016;SDS011;44800;55.600;38.134;2023-04-24T03:54:22;28.85;;;14.07;;
59016;SDS011;44800;55.600;38.134;2023-04-24T03:56:51;33.03;;;15.02;;
59016;SDS011;44800;55.600;38.134;2023-04-24T03:59:21;35.85;;;15.40;;
59016;SDS011;44800;55.600;38.134;2023-04-24T04:01:49;32.78;;;15.98;;
59016;SDS011;44800;55.600;38.134;2023-04-24T04:04:18;37.95;;;15.48;;
59016;SDS011;44800;55.600;38.134;2023-04-24T04:06:47;24.77;;;13.98;;
59016;SDS011;44800;55.600;38.134;2023-04-24T04:09:15;27.63;;;14.05;;
59016;SDS011;44800;55.600;38.134;2023-04-24T04:11:44;34.05;;;15.63;;
59016;SDS011;44800;55.600;38.134;2023-04-24T04:14:13;31.33;;;16.30;;
59016;SDS011;44800;55.600;38.134;2023-04-24T04:16:43;40.88;;;16.88;;
59016;SDS011;44800;55.600;38.134;2023-04-24T04:19:11;23.33;;;13.70;;
59016;SDS011;44800;55.600;38.134;2023-04-24T04:21:40;36.58;;;16.58;;
59016;SDS011;44800;55.600;38.134;2023-04-24T04:24:08;37.95;;;15.82;;
59016;SDS011;44800;55.600;38.134;2023-04-24T04:26:36;27.27;;;14.68;;
59016;SDS011;44800;55.600;38.134;2023-04-24T04:29:05;35.42;;;15.23;;
59016;SDS011;44800;55.600;38.134;2023-04-24T04:31:34;26.23;;;14.90;;
59016;SDS011;44800;55.600;38.134;2023-04-24T04:34:04;28.58;;;15.50;;
59016;SDS011;44800;55.600;38.134;2023-04-24T04:36:34;25.13;;;13.45;;
59016;SDS011;44800;55.600;38.134;2023-04-24T04:39:03;20.83;;;12.20;;
59016;SDS011;44800;55.600;38.134;2023-04-24T04:41:31;18.65;;;12.05;;
59016;SDS011;44800;55.600;38.134;2023-04-24T04:44:01;16.08;;;11.43;;
59016;SDS011;44800;55.600;38.134;2023-04-24T04:46:31;17.20;;;10.05;;
59016;SDS011;44800;55.600;38.134;2023-04-24T04:49:01;21.05;;;10.95;;
59016;SDS011;44800;55.600;38.134;2023-04-24T04:51:30;18.40;;;10.75;;
59016;SDS011;44800;55.600;38.134;2023-04-24T04:53:59;17.77;;;11.13;;
59016;SDS011;44800;55.600;38.134;2023-04-24T04:56:27;17.08;;;11.20;;
59016;SDS011;44800;55.600;38.134;2023-04-24T04:58:56;15.00;;;10.35;;
59016;SDS011;44800;55.600;38.134;2023-04-24T05:01:27;16.88;;;9.75;;
59016;SDS011;44800;55.600;38.134;2023-04-24T05:03:56;18.40;;;10.55;;
59016;SDS011;44800;55.600;38.134;2023-04-24T05:06:24;14.95;;;9.63;;
59016;SDS011;44800;55.600;38.134;2023-04-24T05:08:55;15.65;;;10.07;;
59016;SDS011;44800;55.600;38.134;2023-04-24T05:11:24;13.65;;;9.25;;
59016;SDS011;44800;55.600;38.134;2023-04-24T05:13:53;13.70;;;10.40;;
59016;SDS011;44800;55.600;38.134;2023-04-24T05:16:22;12.70;;;9.25;;
59016;SDS011;44800;55.600;38.134;2023-04-24T05:18:51;15.35;;;9.55;;
59016;SDS011;44800;55.600;38.134;2023-04-24T05:21:19;19.42;;;10.82;;
59016;SDS011;44800;55.600;38.134;2023-04-24T05:23:48;17.42;;;9.73;;
59016;SDS011;44800;55.600;38.134;2023-04-24T05:26:17;16.92;;;10.05;;
59016;SDS011;44800;55.600;38.134;2023-04-24T05:28:46;19.65;;;9.13;;
59016;SDS011;44800;55.600;38.134;2023-04-24T05:31:14;16.25;;;9.45;;
59016;SDS011;44800;55.600;38.134;2023-04-24T05:33:44;17.45;;;8.77;;
59016;SDS011;44800;55.600;38.134;2023-04-24T05:36:12;15.23;;;9.63;;
59016;SDS011;44800;55.600;38.134;2023-04-24T05:38:41;14.68;;;9.25;;
59016;SDS011;44800;55.600;38.134;2023-04-24T05:41:09;12.95;;;9.13;;
59016;SDS011;44800;55.600;38.134;2023-04-24T05:43:39;16.20;;;9.02;;
59016;SDS011;44800;55.600;38.134;2023-04-24T05:46:07;12.07;;;9.20;;
59016;SDS011;44800;55.600;38.134;2023-04-24T05:48:36;15.40;;;8.73;;
59016;SDS011;44800;55.600;38.134;2023-04-24T05:51:04;14.55;;;9.13;;
59016;SDS011;44800;55.600;38.134;2023-04-24T05:53:33;19.45;;;9.02;;
59016;SDS011;44800;55.600;38.134;2023-04-24T05:56:01;14.85;;;8.43;;
59016;SDS011;44800;55.600;38.134;2023-04-24T05:58:29;11.95;;;8.75;;
59016;SDS011;44800;55.600;38.134;2023-04-24T06:00:59;17.10;;;9.50;;
59016;SDS011;44800;55.600;38.134;2023-04-24T06:03:29;16.40;;;8.98;;
59016;SDS011;44800;55.600;38.134;2023-04-24T06:05:57;15.70;;;10.02;;
59016;SDS011;44800;55.600;38.134;2023-04-24T06:08:26;14.73;;;8.60;;
59016;SDS011;44800;55.600;38.134;2023-04-24T06:10:54;10.05;;;7.53;;
59016;SDS011;44800;55.600;38.134;2023-04-24T06:13:22;10.25;;;8.05;;
59016;SDS011;44800;55.600;38.134;2023-04-24T06:15:51;10.65;;;8.43;;
59016;SDS011;44800;55.600;38.134;2023-04-24T06:18:21;15.68;;;8.65;;
59016;SDS011;44800;55.600;38.134;2023-04-24T06:20:49;13.40;;;9.07;;
59016;SDS011;44800;55.600;38.134;2023-04-24T06:23:18;12.73;;;9.60;;
59016;SDS011;44800;55.600;38.134;2023-04-24T06:25:47;8.77;;;6.20;;
59016;SDS011;44800;55.600;38.134;2023-04-24T06:28:16;13.93;;;6.05;;
59016;SDS011;44800;55.600;38.134;2023-04-24T06:30:44;9.45;;;6.18;;
59016;SDS011;44800;55.600;38.134;2023-04-24T06:33:13;11.10;;;7.15;;
59016;SDS011;44800;55.600;38.134;2023-04-24T06:35:48;11.07;;;7.53;;
59016;SDS011;44800;55.600;38.134;2023-04-24T06:38:16;9.18;;;6.10;;
59016;SDS011;44800;55.600;38.134;2023-04-24T06:40:44;7.95;;;5.63;;
59016;SDS011;44800;55.600;38.134;2023-04-24T06:43:13;6.82;;;6.13;;
59016;SDS011;44800;55.600;38.134;2023-04-24T06:45:41;5.88;;;5.18;;
59016;SDS011;44800;55.600;38.134;2023-04-24T06:48:10;12.00;;;5.20;;
59016;SDS011;44800;55.600;38.134;2023-04-24T06:50:39;7.88;;;6.18;;
59016;SDS011;44800;55.600;38.134;2023-04-24T06:53:09;5.70;;;4.93;;
59016;SDS011;44800;55.600;38.134;2023-04-24T06:55:40;9.88;;;6.20;;
59016;SDS011;44800;55.600;38.134;2023-04-24T06:58:09;10.75;;;6.30;;
59016;SDS011;44800;55.600;38.134;2023-04-24T07:00:38;6.30;;;5.00;;
59016;SDS011;44800;55.600;38.134;2023-04-24T07:03:06;8.95;;;5.47;;
59016;SDS011;44800;55.600;38.134;2023-04-24T07:05:35;10.52;;;6.25;;
59016;SDS011;44800;55.600;38.134;2023-04-24T07:08:04;6.18;;;5.30;;
59016;SDS011;44800;55.600;38.134;2023-04-24T07:10:36;6.95;;;5.22;;
59016;SDS011;44800;55.600;38.134;2023-04-24T07:13:05;7.63;;;6.35;;
59016;SDS011;44800;55.600;38.134;2023-04-24T07:15:33;6.05;;;4.72;;
59016;SDS011;44800;55.600;38.134;2023-04-24T07:18:02;9.27;;;5.65;;
59016;SDS011;44800;55.600;38.134;2023-04-24T07:20:31;6.60;;;4.85;;
59016;SDS011;44800;55.600;38.134;2023-04-24T07:22:59;6.88;;;5.07;;
59016;SDS011;44800;55.600;38.134;2023-04-24T07:25:28;5.03;;;4.35;;
59016;SDS011;44800;55.600;38.134;2023-04-24T07:27:59;6.38;;;4.68;;
59016;SDS011;44800;55.600;38.134;2023-04-24T07:30:29;8.13;;;4.30;;
59016;SDS011;44800;55.600;38.134;2023-04-24T07:32:59;7.07;;;4.20;;
59016;SDS011;44800;55.600;38.134;2023-04-24T07:35:27;8.48;;;4.28;;
59016;SDS011;44800;55.600;38.134;2023-04-24T07:37:56;6.68;;;4.18;;
59016;SDS011;44800;55.600;38.134;2023-04-24T07:40:24;11.35;;;4.78;;
59016;SDS011;44800;55.600;38.134;2023-04-24T07:42:52;12.43;;;5.00;;
59016;SDS011;44800;55.600;38.134;2023-04-24T07:45:22;5.25;;;4.05;;
59016;SDS011;44800;55.600;38.134;2023-04-24T07:47:52;6.38;;;4.82;;
59016;SDS011;44800;55.600;38.134;2023-04-24T07:50:21;8.40;;;4.72;;
59016;SDS011;44800;55.600;38.134;2023-04-24T07:52:49;7.63;;;4.63;;
59016;SDS011;44800;55.600;38.134;2023-04-24T07:55:18;6.38;;;4.50;;
59016;SDS011;44800;55.600;38.134;2023-04-24T07:57:49;5.45;;;4.30;;
59016;SDS011;44800;55.600;38.134;2023-04-24T08:00:18;8.00;;;4.80;;
59016;SDS011;44800;55.600;38.134;2023-04-24T08:02:48;6.20;;;5.10;;
59016;SDS011;44800;55.600;38.134;2023-04-24T08:05:17;7.60;;;4.75;;
59016;SDS011;44800;55.600;38.134;2023-04-24T08:07:46;5.10;;;4.60;;
59016;SDS011;44800;55.600;38.134;2023-04-24T08:10:16;10.85;;;5.00;;
59016;SDS011;44800;55.600;38.134;2023-04-24T08:12:45;8.00;;;4.95;;
59016;SDS011;44800;55.600;38.134;2023-04-24T08:15:14;5.75;;;4.63;;
59016;SDS011;44800;55.600;38.134;2023-04-24T08:17:42;4.15;;;3.53;;
59016;SDS011;44800;55.600;38.134;2023-04-24T08:20:12;5.07;;;4.20;;
59016;SDS011;44800;55.600;38.134;2023-04-24T08:22:41;7.28;;;4.82;;
59016;SDS011;44800;55.600;38.134;2023-04-24T08:25:09;8.65;;;4.97;;
59016;SDS011;44800;55.600;38.134;2023-04-24T08:27:38;6.18;;;4.20;;
59016;SDS011;44800;55.600;38.134;2023-04-24T08:30:07;8.77;;;5.13;;
59016;SDS011;44800;55.600;38.134;2023-04-24T08:32:36;6.78;;;4.30;;
59016;SDS011;44800;55.600;38.134;2023-04-24T08:35:06;6.57;;;4.60;;
59016;SDS011;44800;55.600;38.134;2023-04-24T08:37:37;7.70;;;4.63;;
59016;SDS011;44800;55.600;38.134;2023-04-24T08:40:06;4.78;;;4.38;;
59016;SDS011;44800;55.600;38.134;2023-04-24T08:42:41;5.00;;;4.50;;
59016;SDS011;44800;55.600;38.134;2023-04-24T08:45:11;4.72;;;4.05;;
59016;SDS011;44800;55.600;38.134;2023-04-24T08:47:40;4.18;;;3.78;;
59016;SDS011;44800;55.600;38.134;2023-04-24T08:50:09;6.72;;;4.10;;
59016;SDS011;44800;55.600;38.134;2023-04-24T08:52:40;5.85;;;3.75;;
59016;SDS011;44800;55.600;38.134;2023-04-24T08:55:10;7.03;;;4.07;;
59016;SDS011;44800;55.600;38.134;2023-04-24T08:57:39;5.78;;;4.47;;
59016;SDS011;44800;55.600;38.134;2023-04-24T09:00:08;8.25;;;4.28;;
59016;SDS011;44800;55.600;38.134;2023-04-24T09:02:39;5.75;;;4.35;;
59016;SDS011;44800;55.600;38.134;2023-04-24T09:05:11;17.98;;;5.10;;
59016;SDS011;44800;55.600;38.134;2023-04-24T09:07:42;4.93;;;4.30;;
59016;SDS011;44800;55.600;38.134;2023-04-24T09:10:13;4.63;;;4.18;;
59016;SDS011;44800;55.600;38.134;2023-04-24T09:12:41;6.88;;;4.95;;
59016;SDS011;44800;55.600;38.134;2023-04-24T09:15:10;4.72;;;3.88;;
59016;SDS011;44800;55.600;38.134;2023-04-24T09:17:39;7.32;;;4.55;;
59016;SDS011;44800;55.600;38.134;2023-04-24T09:20:07;8.88;;;3.97;;
59016;SDS011;44800;55.600;38.134;2023-04-24T09:22:36;7.30;;;4.57;;
59016;SDS011;44800;55.600;38.134;2023-04-24T09:25:06;7.13;;;4.75;;
59016;SDS011;44800;55.600;38.134;2023-04-24T09:27:35;9.05;;;4.18;;
59016;SDS011;44800;55.600;38.134;2023-04-24T09:30:04;9.88;;;5.00;;
59016;SDS011;44800;55.600;38.134;2023-04-24T09:32:34;6.45;;;4.72;;
59016;SDS011;44800;55.600;38.134;2023-04-24T09:35:07;5.43;;;4.53;;
59016;SDS011;44800;55.600;38.134;2023-04-24T09:37:38;4.85;;;4.35;;
59016;SDS011;44800;55.600;38.134;2023-04-24T09:40:13;6.00;;;4.40;;
59016;SDS011;44800;55.600;38.134;2023-04-24T09:42:45;4.43;;;4.03;;
59016;SDS011;44800;55.600;38.134;2023-04-24T09:45:14;7.63;;;4.93;;
59016;SDS011;44800;55.600;38.134;2023-04-24T09:47:43;9.07;;;4.63;;
59016;SDS011;44800;55.600;38.134;2023-04-24T09:50:12;6.47;;;5.35;;
59016;SDS011;44800;55.600;38.134;2023-04-24T09:52:41;6.47;;;4.68;;
59016;SDS011;44800;55.600;38.134;2023-04-24T09:55:13;5.30;;;3.83;;
59016;SDS011;44800;55.600;38.134;2023-04-24T09:57:49;9.50;;;4.28;;
59016;SDS011;44800;55.600;38.134;2023-04-24T10:00:19;7.30;;;5.47;;
59016;SDS011;44800;55.600;38.134;2023-04-24T10:02:50;6.30;;;5.00;;
59016;SDS011;44800;55.600;38.134;2023-04-24T10:05:22;7.15;;;3.85;;
59016;SDS011;44800;55.600;38.134;2023-04-24T10:07:52;5.03;;;4.28;;
59016;SDS011;44800;55.600;38.134;2023-04-24T10:10:26;8.20;;;4.07;;
59016;SDS011;44800;55.600;38.134;2023-04-24T10:12:54;5.57;;;4.10;;
59016;SDS011;44800;55.600;38.134;2023-04-24T10:15:22;9.65;;;4.57;;
59016;SDS011;44800;55.600;38.134;2023-04-24T10:17:51;6.80;;;4.50;;
59016;SDS011;44800;55.600;38.134;2023-04-24T10:20:20;5.32;;;3.67;;
59016;SDS011;44800;55.600;38.134;2023-04-24T10:22:51;4.93;;;4.05;;
59016;SDS011;44800;55.600;38.134;2023-04-24T10:25:21;9.65;;;5.20;;
59016;SDS011;44800;55.600;38.134;2023-04-24T10:27:53;5.22;;;4.03;;
59016;SDS011;44800;55.600;38.134;2023-04-24T10:30:24;4.85;;;3.63;;
59016;SDS011;44800;55.600;38.134;2023-04-24T10:32:52;7.60;;;4.13;;
59016;SDS011;44800;55.600;38.134;2023-04-24T10:35:21;7.10;;;4.45;;
59016;SDS011;44800;55.600;38.134;2023-04-24T10:37:54;8.07;;;3.45;;
59016;SDS011;44800;55.600;38.134;2023-04-24T10:40:26;5.85;;;2.65;;
59016;SDS011;44800;55.600;38.134;2023-04-24T10:42:56;7.10;;;4.10;;
59016;SDS011;44800;55.600;38.134;2023-04-24T10:45:26;5.38;;;3.92;;
59016;SDS011;44800;55.600;38.134;2023-04-24T10:47:56;5.10;;;3.78;;
59016;SDS011;44800;55.600;38.134;2023-04-24T10:50:26;6.68;;;4.20;;
59016;SDS011;44800;55.600;38.134;2023-04-24T10:53:05;7.75;;;4.50;;
59016;SDS011;44800;55.600;38.134;2023-04-24T10:55:44;4.55;;;3.10;;
59016;SDS011;44800;55.600;38.134;2023-04-24T10:58:15;4.75;;;3.40;;
59016;SDS011;44800;55.600;38.134;2023-04-24T11:00:48;5.05;;;3.50;;
59016;SDS011;44800;55.600;38.134;2023-04-24T11:03:25;5.95;;;4.25;;
59016;SDS011;44800;55.600;38.134;2023-04-24T11:05:56;5.57;;;3.97;;
59016;SDS011;44800;55.600;38.134;2023-04-24T11:08:28;11.32;;;5.50;;
59016;SDS011;44800;55.600;38.134;2023-04-24T11:10:59;5.90;;;4.57;;
59016;SDS011;44800;55.600;38.134;2023-04-24T11:16:35;6.45;;;3.88;;
59016;SDS011;44800;55.600;38.134;2023-04-24T11:19:06;9.23;;;4.82;;
59016;SDS011;44800;55.600;38.134;2023-04-24T11:21:39;5.30;;;3.95;;
59016;SDS011;44800;55.600;38.134;2023-04-24T11:27:06;5.25;;;3.15;;
59016;SDS011;44800;55.600;38.134;2023-04-24T11:29:45;6.13;;;3.63;;
59016;SDS011;44800;55.600;38.134;2023-04-24T11:32:18;8.07;;;4.47;;
59016;SDS011;44800;55.600;38.134;2023-04-24T11:34:51;7.65;;;3.60;;
59016;SDS011;44800;55.600;38.134;2023-04-24T11:37:22;8.82;;;4.70;;
59016;SDS011;44800;55.600;38.134;2023-04-24T11:39:51;7.03;;;2.92;;
59016;SDS011;44800;55.600;38.134;2023-04-24T11:42:21;10.60;;;3.60;;
59016;SDS011;44800;55.600;38.134;2023-04-24T11:44:51;4.63;;;3.65;;
59016;SDS011;44800;55.600;38.134;2023-04-24T11:47:20;5.75;;;3.95;;
59016;SDS011;44800;55.600;38.134;2023-04-24T11:49:50;4.35;;;3.70;;
59016;SDS011;44800;55.600;38.134;2023-04-24T11:52:19;5.05;;;3.65;;
59016;SDS011;44800;55.600;38.134;2023-04-24T11:54:50;6.68;;;4.30;;
59016;SDS011;44800;55.600;38.134;2023-04-24T11:57:19;7.65;;;4.55;;
59016;SDS011;44800;55.600;38.134;2023-04-24T11:59:48;5.13;;;3.88;;
59016;SDS011;44800;55.600;38.134;2023-04-24T12:02:22;4.55;;;4.13;;
59016;SDS011;44800;55.600;38.134;2023-04-24T12:04:51;7.97;;;4.03;;
59016;SDS011;44800;55.600;38.134;2023-04-24T12:07:20;8.30;;;3.90;;
59016;SDS011;44800;55.600;38.134;2023-04-24T12:09:54;5.35;;;3.83;;
59016;SDS011;44800;55.600;38.134;2023-04-24T12:12:24;5.57;;;3.70;;
59016;SDS011;44800;55.600;38.134;2023-04-24T12:14:54;5.47;;;3.67;;
59016;SDS011;44800;55.600;38.134;2023-04-24T12:17:25;6.97;;;4.20;;
59016;SDS011;44800;55.600;38.134;2023-04-24T12:19:57;6.13;;;4.40;;
59016;SDS011;44800;55.600;38.134;2023-04-24T12:22:26;3.75;;;3.13;;
59016;SDS011;44800;55.600;38.134;2023-04-24T12:24:55;4.35;;;3.15;;
59016;SDS011;44800;55.600;38.134;2023-04-24T12:27:31;4.40;;;3.95;;
59016;SDS011;44800;55.600;38.134;2023-04-24T12:30:02;5.65;;;4.13;;
59016;SDS011;44800;55.600;38.134;2023-04-24T12:32:40;8.52;;;3.92;;
59016;SDS011;44800;55.600;38.134;2023-04-24T12:35:09;5.00;;;3.63;;
59016;SDS011;44800;55.600;38.134;2023-04-24T12:37:37;5.88;;;4.03;;
59016;SDS011;44800;55.600;38.134;2023-04-24T12:40:07;4.22;;;3.83;;
59016;SDS011;44800;55.600;38.134;2023-04-24T12:42:42;8.30;;;3.53;;
59016;SDS011;44800;55.600;38.134;2023-04-24T12:45:11;6.05;;;3.47;;
59016;SDS011;44800;55.600;38.134;2023-04-24T12:47:42;4.97;;;3.78;;
59016;SDS011;44800;55.600;38.134;2023-04-24T12:50:12;6.18;;;3.90;;
59016;SDS011;44800;55.600;38.134;2023-04-24T12:52:41;8.05;;;4.22;;
59016;SDS011;44800;55.600;38.134;2023-04-24T12:55:10;7.90;;;4.05;;
59016;SDS011;44800;55.600;38.134;2023-04-24T12:57:39;7.00;;;4.38;;
59016;SDS011;44800;55.600;38.134;2023-04-24T13:00:08;5.38;;;3.70;;
59016;SDS011;44800;55.600;38.134;2023-04-24T13:02:37;5.97;;;4.40;;
59016;SDS011;44800;55.600;38.134;2023-04-24T13:05:08;6.28;;;4.20;;
59016;SDS011;44800;55.600;38.134;2023-04-24T13:07:41;9.38;;;4.25;;
59016;SDS011;44800;55.600;38.134;2023-04-24T13:10:10;8.85;;;4.55;;
59016;SDS011;44800;55.600;38.134;2023-04-24T13:12:39;11.13;;;4.30;;
59016;SDS011;44800;55.600;38.134;2023-04-24T13:15:11;7.23;;;3.57;;
59016;SDS011;44800;55.600;38.134;2023-04-24T13:17:40;5.97;;;4.40;;
59016;SDS011;44800;55.600;38.134;2023-04-24T13:20:10;5.30;;;3.97;;
59016;SDS011;44800;55.600;38.134;2023-04-24T13:22:39;5.82;;;3.85;;
59016;SDS011;44800;55.600;38.134;2023-04-24T13:25:07;9.00;;;4.18;;
59016;SDS011;44800;55.600;38.134;2023-04-24T13:27:37;10.50;;;3.92;;
59016;SDS011;44800;55.600;38.134;2023-04-24T13:30:06;7.78;;;3.55;;
59016;SDS011;44800;55.600;38.134;2023-04-24T13:32:35;7.15;;;3.53;;
59016;SDS011;44800;55.600;38.134;2023-04-24T13:35:04;5.53;;;2.47;;
59016;SDS011;44800;55.600;38.134;2023-04-24T13:37:34;8.70;;;3.17;;
59016;SDS011;44800;55.600;38.134;2023-04-24T13:40:03;6.75;;;2.95;;
59016;SDS011;44800;55.600;38.134;2023-04-24T13:42:33;7.53;;;3.95;;
59016;SDS011;44800;55.600;38.134;2023-04-24T13:45:02;8.13;;;3.97;;
59016;SDS011;44800;55.600;38.134;2023-04-24T13:47:49;16.70;;;4.07;;
59016;SDS011;44800;55.600;38.134;2023-04-24T13:50:18;6.00;;;3.47;;
59016;SDS011;44800;55.600;38.134;2023-04-24T13:52:48;5.13;;;3.42;;
59016;SDS011;44800;55.600;38.134;2023-04-24T13:55:17;6.50;;;3.47;;
59016;SDS011;44800;55.600;38.134;2023-04-24T13:57:46;5.45;;;3.47;;
59016;SDS011;44800;55.600;38.134;2023-04-24T14:00:15;5.93;;;3.60;;
59016;SDS011;44800;55.600;38.134;2023-04-24T14:02:46;4.80;;;3.83;;
59016;SDS011;44800;55.600;38.134;2023-04-24T14:05:17;5.07;;;3.20;;
59016;SDS011;44800;55.600;38.134;2023-04-24T14:07:48;4.68;;;2.75;;
59016;SDS011;44800;55.600;38.134;2023-04-24T14:10:17;6.30;;;3.15;;
59016;SDS011;44800;55.600;38.134;2023-04-24T14:12:46;5.82;;;3.38;;
59016;SDS011;44800;55.600;38.134;2023-04-24T14:15:15;8.07;;;3.55;;
59016;SDS011;44800;55.600;38.134;2023-04-24T14:17:43;6.03;;;3.53;;
59016;SDS011;44800;55.600;38.134;2023-04-24T14:20:11;10.68;;;4.20;;
59016;SDS011;44800;55.600;38.134;2023-04-24T14:22:40;7.05;;;4.15;;
59016;SDS011;44800;55.600;38.134;2023-04-24T14:25:10;5.18;;;3.22;;
59016;SDS011;44800;55.600;38.134;2023-04-24T14:27:38;7.28;;;3.80;;
59016;SDS011;44800;55.600;38.134;2023-04-24T14:30:07;7.03;;;4.25;;
59016;SDS011;44800;55.600;38.134;2023-04-24T14:32:37;7.22;;;3.70;;
59016;SDS011;44800;55.600;38.134;2023-04-24T14:35:06;9.48;;;5.30;;
59016;SDS011;44800;55.600;38.134;2023-04-24T14:37:35;4.53;;;4.03;;
59016;SDS011;44800;55.600;38.134;2023-04-24T14:40:04;6.63;;;3.83;;
59016;SDS011;44800;55.600;38.134;2023-04-24T14:42:56;5.28;;;3.92;;